Time,TemperatureF,DewpointF,PressureIn,WindDirection,WindDirectionDegrees,WindSpeedMPH,WindSpeedGustMPH,Humidity,HourlyPrecipIn,Conditions,Clouds,dailyrainin,SolarRadiationWatts/m^2,SoftwareType,DateUTC
2013-09-01 00:01:00,64.3,62.8,29.72,East,98,0.0,0.0,95,0.00,RA,,0.00,0.0,WeatherDisplay:10.37,2013-09-01 05:01:00,
2013-09-01 00:06:00,64.3,63.1,29.71,East,98,0.0,0.0,96,0.00,RA,,0.00,0.0,WeatherDisplay:10.37,2013-09-01 05:06:00,
2013-09-01 00:11:00,64.3,63.1,29.71,East,98,0.0,0.0,96,0.00,CLR,,0.00,0.0,WeatherDisplay:10.37,2013-09-01 05:11:00,
2013-09-01 00:16:00,64.3,63.1,29.71,East,98,0.0,0.0,96,0.00,FEW,,0.00,0.0,WeatherDisplay:10.37,2013-09-01 05:16:00,
2013-09-01 00:21:00,64.3,63.1,29.71,East,98,0.0,0.0,96,0.00,FEW,,0.00,0.0,WeatherDisplay:10.37,2013-09-01 05:21:00,
2013-09-01 00:26:00,64.3,63.1,29.71,East,98,0.0,0.0,96,0.00,FEW,,0.00,0.0,WeatherDisplay:10.37,2013-09-01 05:26:00,
2013-09-01 00:31:00,64.3,63.1,29.70,East,98,0.0,0.0,96,0.00,FEW,,0.00,0.0,WeatherDisplay:10.37,2013-09-01 05:31:00,
2013-09-01 00:36:00,64.3,63.1,29.70,East,98,0.0,0.0,96,0.00,FEW,,0.00,0.0,WeatherDisplay:10.37,2013-09-01 05:36:00,
2013-09-01 00:41:00,64.2,63.0,29.70,East,98,0.0,0.0,96,0.00,FEW,,0.00,0.0,WeatherDisplay:10.37,2013-09-01 05:41:00,
2013-09-01 00:46:00,64.1,62.9,29.71,East,98,0.0,0.0,96,0.00,FEW,,0.00,0.0,WeatherDisplay:10.37,2013-09-01 05:46:00,
2013-09-01 00:51:00,64.0,62.8,29.71,East,98,1.1,0.0,96,0.00,FEW,,0.00,0.0,WeatherDisplay:10.37,2013-09-01 05:51:00,
2013-09-01 00:56:00,63.9,62.7,29.71,East,98,0.0,0.0,96,0.00,FEW,,0.00,0.0,WeatherDisplay:10.37,2013-09-01 05:56:00,
2013-09-01 01:01:00,63.8,62.6,29.71,East,98,0.0,0.0,96,0.00,CLR,,0.00,0.0,WeatherDisplay:10.37,2013-09-01 06:01:00,
2013-09-01 01:06:00,63.6,62.4,29.71,East,98,0.0,0.0,96,0.00,CLR,,0.00,0.0,WeatherDisplay:10.37,2013-09-01 06:06:00,
2013-09-01 01:11:00,63.5,62.3,29.71,East,98,0.0,0.0,96,0.00,CLR,,0.00,0.0,WeatherDisplay:10.37,2013-09-01 06:11:00,
2013-09-01 01:16:00,63.2,61.7,29.70,East,98,0.0,0.0,95,0.00,CLR,,0.00,0.0,WeatherDisplay:10.37,2013-09-01 06:16:00,
2013-09-01 01:22:00,63.1,61.9,29.71,East,98,0.0,0.0,96,0.00,CLR,,0.00,0.0,WeatherDisplay:10.37,2013-09-01 06:22:00,
2013-09-01 01:27:00,63.1,61.9,29.71,East,98,0.0,0.0,96,0.00,CLR,,0.00,0.0,WeatherDisplay:10.37,2013-09-01 06:27:00,
2013-09-01 01:32:00,63.1,61.9,29.70,East,98,0.0,0.0,96,0.00,CLR,,0.00,0.0,WeatherDisplay:10.37,2013-09-01 06:32:00,
2013-09-01 01:37:00,63.0,61.8,29.70,East,98,0.0,0.0,96,0.00,CLR,,0.00,0.0,WeatherDisplay:10.37,2013-09-01 06:37:00,
2013-09-01 01:42:00,62.8,61.6,29.70,East,98,1.1,0.0,96,0.00,CLR,,0.00,0.0,WeatherDisplay:10.37,2013-09-01 06:42:00,
2013-09-01 01:47:00,62.7,61.5,29.70,East,98,0.0,0.0,96,0.00,CLR,,0.00,0.0,WeatherDisplay:10.37,2013-09-01 06:47:00,
2013-09-01 01:52:00,62.7,61.5,29.70,East,98,0.0,0.0,96,0.00,CLR,,0.00,0.0,WeatherDisplay:10.37,2013-09-01 06:52:00,
2013-09-01 01:57:00,62.7,61.8,29.70,East,98,0.0,0.0,97,0.00,CLR,,0.00,0.0,WeatherDisplay:10.37,2013-09-01 06:57:00,
2013-09-01 02:02:00,62.7,61.8,29.70,East,98,0.0,0.0,97,0.00,SCT,,0.00,0.0,WeatherDisplay:10.37,2013-09-01 07:02:00,
2013-09-01 02:07:00,62.8,61.9,29.70,East,98,0.0,0.0,97,0.00,SCT,,0.00,0.0,WeatherDisplay:10.37,2013-09-01 07:07:00,
2013-09-01 02:12:00,62.8,61.9,29.70,East,98,0.0,0.0,97,0.00,SCT,,0.00,0.0,WeatherDisplay:10.37,2013-09-01 07:12:00,
2013-09-01 02:17:00,62.8,61.9,29.70,East,98,0.0,0.0,97,0.00,SCT,,0.00,0.0,WeatherDisplay:10.37,2013-09-01 07:17:00,
2013-09-01 02:22:00,62.7,61.8,29.69,East,98,0.0,0.0,97,0.00,SCT,,0.00,0.0,WeatherDisplay:10.37,2013-09-01 07:22:00,
2013-09-01 02:27:00,62.7,61.8,29.70,East,98,0.0,0.0,97,0.00,SCT,,0.00,0.0,WeatherDisplay:10.37,2013-09-01 07:27:00,
2013-09-01 02:32:00,62.6,61.7,29.70,East,98,0.0,0.0,97,0.00,SCT,,0.00,0.0,WeatherDisplay:10.37,2013-09-01 07:32:00,
2013-09-01 02:37:00,62.6,61.7,29.70,East,98,0.0,0.0,97,0.00,SCT,,0.00,0.0,WeatherDisplay:10.37,2013-09-01 07:37:00,
2013-09-01 02:42:00,62.6,61.7,29.70,East,98,0.0,0.0,97,0.00,SCT,,0.00,0.0,WeatherDisplay:10.37,2013-09-01 07:42:00,
2013-09-01 02:47:00,62.5,61.6,29.70,East,98,0.0,0.0,97,0.00,SCT,,0.00,0.0,WeatherDisplay:10.37,2013-09-01 07:47:00,
2013-09-01 02:52:00,62.5,61.6,29.70,East,98,0.0,0.0,97,0.00,SCT,,0.00,0.0,WeatherDisplay:10.37,2013-09-01 07:52:00,
2013-09-01 02:57:00,62.5,61.6,29.70,East,98,0.0,0.0,97,0.00,SCT,,0.00,0.0,WeatherDisplay:10.37,2013-09-01 07:57:00,
2013-09-01 03:02:00,62.5,61.6,29.69,East,98,0.0,0.0,97,0.00,SCT,,0.00,0.0,WeatherDisplay:10.37,2013-09-01 08:02:00,
2013-09-01 03:07:00,62.5,61.6,29.70,East,98,0.0,0.0,97,0.00,SCT,,0.00,0.0,WeatherDisplay:10.37,2013-09-01 08:07:00,
2013-09-01 03:12:00,62.5,61.6,29.70,East,98,0.0,0.0,97,0.00,SCT,,0.00,0.0,WeatherDisplay:10.37,2013-09-01 08:12:00,
2013-09-01 03:17:00,62.5,61.6,29.70,East,98,0.0,0.0,97,0.00,SCT,,0.00,0.0,WeatherDisplay:10.37,2013-09-01 08:17:00,
2013-09-01 03:22:00,62.5,61.6,29.70,East,98,0.0,0.0,97,0.00,SCT,,0.00,0.0,WeatherDisplay:10.37,2013-09-01 08:22:00,
2013-09-01 03:27:00,62.5,61.6,29.70,East,98,0.0,0.0,97,0.00,SCT,,0.00,0.0,WeatherDisplay:10.37,2013-09-01 08:27:00,
2013-09-01 03:32:00,62.4,61.5,29.70,East,98,0.0,0.0,97,0.00,SCT,,0.00,0.0,WeatherDisplay:10.37,2013-09-01 08:32:00,
2013-09-01 03:37:00,62.4,61.5,29.70,East,98,0.0,0.1,97,0.00,SCT,,0.00,0.0,WeatherDisplay:10.37,2013-09-01 08:37:00,
2013-09-01 03:42:00,62.4,61.5,29.70,East,98,0.0,0.0,97,0.00,SCT,,0.00,0.0,WeatherDisplay:10.37,2013-09-01 08:42:00,
2013-09-01 03:47:00,62.4,61.5,29.70,East,98,0.0,0.0,97,0.00,SCT,,0.00,0.0,WeatherDisplay:10.37,2013-09-01 08:47:00,
2013-09-01 03:52:00,62.4,61.5,29.70,East,98,0.0,0.0,97,0.00,SCT,,0.00,0.0,WeatherDisplay:10.37,2013-09-01 08:52:00,
2013-09-01 03:57:00,62.4,61.5,29.70,East,98,0.0,0.0,97,0.00,SCT,,0.00,0.0,WeatherDisplay:10.37,2013-09-01 08:57:00,
2013-09-01 04:02:00,62.4,61.5,29.69,East,98,0.0,0.0,97,0.00,FEW,,0.00,0.0,WeatherDisplay:10.37,2013-09-01 09:02:00,
2013-09-01 04:07:00,62.4,61.5,29.70,East,96,0.0,0.0,97,0.00,FEW,,0.00,0.0,WeatherDisplay:10.37,2013-09-01 09:07:00,
2013-09-01 04:12:00,62.5,61.6,29.70,East,96,0.0,0.0,97,0.00,FEW,,0.00,0.0,WeatherDisplay:10.37,2013-09-01 09:12:00,
2013-09-01 04:17:00,62.4,61.5,29.70,East,96,0.0,0.0,97,0.00,FEW,,0.00,0.0,WeatherDisplay:10.37,2013-09-01 09:17:00,
2013-09-01 04:22:00,62.3,61.4,29.70,East,96,0.0,0.0,97,0.00,FEW,,0.00,0.0,WeatherDisplay:10.37,2013-09-01 09:22:00,
2013-09-01 04:27:00,62.3,61.4,29.70,East,96,0.0,0.0,97,0.00,FEW,,0.00,0.0,WeatherDisplay:10.37,2013-09-01 09:27:00,
2013-09-01 04:32:00,62.2,61.3,29.69,East,96,0.0,0.0,97,0.00,FEW,,0.00,0.0,WeatherDisplay:10.37,2013-09-01 09:32:00,
2013-09-01 04:37:00,62.0,61.1,29.69,East,96,0.0,0.0,97,0.00,FEW,,0.00,0.0,WeatherDisplay:10.37,2013-09-01 09:37:00,
2013-09-01 04:42:00,61.9,61.0,29.69,East,96,0.0,0.0,97,0.00,FEW,,0.00,0.0,WeatherDisplay:10.37,2013-09-01 09:42:00,
2013-09-01 04:47:00,61.8,60.9,29.68,East,96,0.0,0.0,97,0.00,FEW,,0.00,0.0,WeatherDisplay:10.37,2013-09-01 09:47:00,
2013-09-01 04:52:00,61.6,60.7,29.68,East,96,0.0,0.0,97,0.00,FEW,,0.00,0.0,WeatherDisplay:10.37,2013-09-01 09:52:00,
2013-09-01 04:57:00,61.5,60.6,29.68,East,96,0.0,0.0,97,0.00,FEW,,0.00,0.0,WeatherDisplay:10.37,2013-09-01 09:57:00,
2013-09-01 05:02:00,61.4,60.5,29.69,East,96,0.0,0.0,97,0.00,BKN,,0.00,0.0,WeatherDisplay:10.37,2013-09-01 10:02:00,
2013-09-01 05:07:00,61.3,60.4,29.69,East,96,0.0,0.0,97,0.00,BKN,,0.00,0.0,WeatherDisplay:10.37,2013-09-01 10:07:00,
2013-09-01 05:12:00,61.2,60.3,29.69,East,96,0.0,0.0,97,0.00,BKN,,0.00,0.0,WeatherDisplay:10.37,2013-09-01 10:12:00,
2013-09-01 05:17:00,61.2,60.3,29.69,East,96,0.0,0.0,97,0.00,OVC,,0.00,0.0,WeatherDisplay:10.37,2013-09-01 10:17:00,
2013-09-01 05:22:00,61.2,60.3,29.70,East,96,0.0,0.0,97,0.00,OVC,,0.00,0.0,WeatherDisplay:10.37,2013-09-01 10:22:00,
2013-09-01 05:27:00,61.2,60.3,29.69,East,96,0.0,0.0,97,0.00,OVC,,0.00,0.0,WeatherDisplay:10.37,2013-09-01 10:27:00,
2013-09-01 05:32:00,61.2,60.3,29.69,East,96,0.0,0.0,97,0.00,OVC,,0.00,0.0,WeatherDisplay:10.37,2013-09-01 10:32:00,
2013-09-01 05:37:00,61.2,60.3,29.69,East,96,0.0,0.0,97,0.00,OVC,,0.00,0.0,WeatherDisplay:10.37,2013-09-01 10:37:00,
2013-09-01 05:42:00,61.3,60.4,29.69,East,96,0.0,0.0,97,0.00,OVC,,0.00,0.0,WeatherDisplay:10.37,2013-09-01 10:42:00,
2013-09-01 05:47:00,61.3,60.7,29.69,East,96,0.0,0.0,98,0.00,OVC,,0.00,0.0,WeatherDisplay:10.37,2013-09-01 10:47:00,
2013-09-01 05:52:00,61.4,60.8,29.69,East,96,0.0,0.0,98,0.00,OVC,,0.00,0.0,WeatherDisplay:10.37,2013-09-01 10:52:00,
2013-09-01 05:57:00,61.5,60.9,29.69,East,96,0.0,0.0,98,0.00,OVC,,0.00,0.0,WeatherDisplay:10.37,2013-09-01 10:57:00,
2013-09-01 06:02:00,61.8,61.2,29.69,ESE,111,1.1,0.0,98,0.00,OVC,,0.00,0.0,WeatherDisplay:10.37,2013-09-01 11:02:00,
2013-09-01 06:07:00,62.0,61.4,29.70,ESE,106,1.1,0.0,98,0.00,OVC,,0.00,0.0,WeatherDisplay:10.37,2013-09-01 11:07:00,
2013-09-01 06:12:00,62.2,61.6,29.70,East,100,1.0,1.0,98,0.00,OVC,,0.00,0.0,WeatherDisplay:10.37,2013-09-01 11:12:00,
2013-09-01 06:17:00,62.5,61.9,29.70,NNW,331,2.3,2.3,98,0.00,OVC,,0.00,0.0,WeatherDisplay:10.37,2013-09-01 11:17:00,
2013-09-01 06:22:00,62.8,62.2,29.70,NW,309,0.0,0.0,98,0.00,OVC,,0.00,0.0,WeatherDisplay:10.37,2013-09-01 11:22:00,
2013-09-01 06:27:00,62.8,62.2,29.70,South,190,2.3,2.3,98,0.00,OVC,,0.00,0.0,WeatherDisplay:10.37,2013-09-01 11:27:00,
2013-09-01 06:32:00,62.9,62.3,29.70,SSW,193,1.1,0.0,98,0.00,OVC,,0.00,0.0,WeatherDisplay:10.37,2013-09-01 11:32:00,
2013-09-01 06:37:00,62.9,62.0,29.71,WSW,253,1.1,0.0,97,0.00,OVC,,0.00,0.0,WeatherDisplay:10.37,2013-09-01 11:37:00,
2013-09-01 06:42:00,63.0,62.1,29.71,North,355,2.3,2.3,97,0.00,OVC,,0.00,0.0,WeatherDisplay:10.37,2013-09-01 11:42:00,
2013-09-01 06:47:00,63.1,61.9,29.71,West,263,0.0,0.0,96,0.00,OVC,,0.00,0.0,WeatherDisplay:10.37,2013-09-01 11:47:00,
2013-09-01 06:52:00,63.1,61.6,29.71,NNW,346,2.3,0.0,95,0.00,OVC,,0.00,5.0,WeatherDisplay:10.37,2013-09-01 11:52:00,
2013-09-01 06:58:00,63.2,61.7,29.71,NNW,346,1.1,1.1,95,0.00,OVC,,0.00,5.0,WeatherDisplay:10.37,2013-09-01 11:58:00,
2013-09-01 07:03:00,63.3,61.5,29.71,SW,215,1.1,1.1,94,0.00,OVC,,0.00,12.0,WeatherDisplay:10.37,2013-09-01 12:03:00,
2013-09-01 07:08:00,63.3,61.2,29.71,South,190,6.9,6.9,93,0.00,OVC,,0.00,16.0,WeatherDisplay:10.37,2013-09-01 12:08:00,
2013-09-01 07:13:00,63.4,61.3,29.71,SW,234,3.5,3.5,93,0.00,OVC,,0.00,18.0,WeatherDisplay:10.37,2013-09-01 12:13:00,
2013-09-01 07:18:00,63.5,61.1,29.71,WSW,257,5.8,5.8,92,0.00,OVC,,0.00,18.0,WeatherDisplay:10.37,2013-09-01 12:18:00,
2013-09-01 07:23:00,63.5,60.8,29.71,SSE,168,3.5,3.5,91,0.00,OVC,,0.00,16.0,WeatherDisplay:10.37,2013-09-01 12:23:00,
2013-09-01 07:28:00,63.5,60.8,29.71,SW,219,2.3,2.3,91,0.00,OVC,,0.00,9.0,WeatherDisplay:10.37,2013-09-01 12:28:00,
2013-09-01 07:33:00,63.5,60.8,29.71,WNW,295,2.0,2.0,91,0.00,OVC,,0.00,11.0,WeatherDisplay:10.37,2013-09-01 12:33:00,
2013-09-01 07:38:00,63.5,60.8,29.71,West,279,3.5,3.5,91,0.00,OVC,,0.00,18.0,WeatherDisplay:10.37,2013-09-01 12:38:00,
2013-09-01 07:43:00,63.6,60.9,29.72,SSW,192,3.5,3.5,91,0.00,OVC,,0.00,32.0,WeatherDisplay:10.37,2013-09-01 12:43:00,
2013-09-01 07:48:00,63.7,61.0,29.72,West,269,1.1,1.1,91,0.00,OVC,,0.00,44.0,WeatherDisplay:10.37,2013-09-01 12:48:00,
2013-09-01 07:53:00,63.9,60.9,29.72,NNW,334,2.3,2.3,90,0.00,OVC,,0.00,53.0,WeatherDisplay:10.37,2013-09-01 12:53:00,
2013-09-01 07:58:00,64.0,61.0,29.72,NE,48,2.0,2.0,90,0.00,OVC,,0.00,47.0,WeatherDisplay:10.37,2013-09-01 12:58:00,
2013-09-01 08:03:00,64.1,60.8,29.72,North,355,1.1,1.1,89,0.00,OVC,,0.00,28.0,WeatherDisplay:10.37,2013-09-01 13:03:00,
2013-09-01 08:08:00,64.3,61.0,29.72,WNW,286,3.5,3.5,89,0.00,OVC,,0.00,26.0,WeatherDisplay:10.37,2013-09-01 13:08:00,
2013-09-01 08:13:00,64.3,61.0,29.73,ENE,67,0.0,0.0,89,0.00,OVC,,0.00,23.0,WeatherDisplay:10.37,2013-09-01 13:13:00,
2013-09-01 08:18:00,64.4,61.1,29.73,WNW,300,3.5,3.5,89,0.00,OVC,,0.00,28.0,WeatherDisplay:10.37,2013-09-01 13:18:00,
2013-09-01 08:23:00,64.5,61.2,29.73,SSW,205,4.6,4.6,89,0.00,OVC,,0.00,21.0,WeatherDisplay:10.37,2013-09-01 13:23:00,
2013-09-01 08:28:00,64.6,61.0,29.73,NE,39,1.1,1.1,88,0.00,OVC,,0.00,40.0,WeatherDisplay:10.37,2013-09-01 13:28:00,
2013-09-01 08:33:00,64.8,60.8,29.73,WSW,256,2.3,2.3,87,0.00,OVC,,0.00,28.0,WeatherDisplay:10.37,2013-09-01 13:33:00,
2013-09-01 08:38:00,65.0,61.0,29.73,WSW,242,1.1,1.1,87,0.00,OVC,,0.00,116.0,WeatherDisplay:10.37,2013-09-01 13:38:00,
2013-09-01 08:43:00,65.3,61.3,29.73,WSW,253,1.1,0.0,87,0.00,OVC,,0.00,70.0,WeatherDisplay:10.37,2013-09-01 13:43:00,
2013-09-01 08:48:00,65.5,61.5,29.73,South,186,0.0,0.1,87,0.00,OVC,,0.00,69.0,WeatherDisplay:10.37,2013-09-01 13:48:00,
2013-09-01 08:53:00,65.6,61.3,29.74,WSW,242,4.6,4.6,86,0.00,OVC,,0.00,95.0,WeatherDisplay:10.37,2013-09-01 13:53:00,
2013-09-01 08:58:00,65.6,61.3,29.74,West,277,3.5,3.5,86,0.00,OVC,,0.00,109.0,WeatherDisplay:10.37,2013-09-01 13:58:00,
2013-09-01 09:03:00,65.7,60.7,29.74,West,262,3.5,3.5,84,0.00,OVC,,0.00,93.0,WeatherDisplay:10.37,2013-09-01 14:03:00,
2013-09-01 09:08:00,65.6,61.0,29.74,South,182,1.1,1.1,85,0.00,OVC,,0.00,97.0,WeatherDisplay:10.37,2013-09-01 14:08:00,
2013-09-01 09:13:00,65.6,61.3,29.74,SE,129,1.0,1.0,86,0.00,OVC,,0.00,104.0,WeatherDisplay:10.37,2013-09-01 14:13:00,
2013-09-01 09:18:00,65.6,61.3,29.74,NE,40,3.5,3.5,86,0.00,OVC,,0.00,125.0,WeatherDisplay:10.37,2013-09-01 14:18:00,
2013-09-01 09:23:00,65.6,61.0,29.74,NW,313,2.3,2.3,85,0.00,OVC,,0.00,111.0,WeatherDisplay:10.37,2013-09-01 14:23:00,
2013-09-01 09:28:00,65.7,61.1,29.75,West,259,3.5,3.5,85,0.00,OVC,,0.00,137.0,WeatherDisplay:10.37,2013-09-01 14:28:00,
2013-09-01 09:33:00,65.8,61.8,29.75,SW,234,1.1,1.1,87,0.00,OVC,,0.00,142.0,WeatherDisplay:10.37,2013-09-01 14:33:00,
2013-09-01 09:38:00,65.9,60.9,29.75,South,175,3.5,3.5,84,0.00,OVC,,0.00,116.0,WeatherDisplay:10.37,2013-09-01 14:38:00,
2013-09-01 09:43:00,66.1,61.1,29.75,SW,233,2.3,2.3,84,0.00,OVC,,0.00,167.0,WeatherDisplay:10.37,2013-09-01 14:43:00,
2013-09-01 09:48:00,66.3,61.3,29.75,SW,229,2.0,2.0,84,0.00,OVC,,0.00,176.0,WeatherDisplay:10.37,2013-09-01 14:48:00,
2013-09-01 09:53:00,66.5,61.8,29.75,WSW,245,1.1,1.1,85,0.00,OVC,,0.00,192.0,WeatherDisplay:10.37,2013-09-01 14:53:00,
2013-09-01 09:58:00,66.7,61.4,29.75,NE,40,2.3,2.3,83,0.00,OVC,,0.00,139.0,WeatherDisplay:10.37,2013-09-01 14:58:00,
2013-09-01 10:03:00,66.7,61.0,29.75,NNW,327,3.5,3.5,82,0.00,OVC,,0.00,183.0,WeatherDisplay:10.37,2013-09-01 15:03:00,
2013-09-01 10:08:00,66.7,61.4,29.75,NNE,21,1.1,1.1,83,0.00,OVC,,0.00,206.0,WeatherDisplay:10.37,2013-09-01 15:08:00,
2013-09-01 10:13:00,66.8,61.1,29.75,North,360,3.5,3.5,82,0.00,OVC,,0.00,162.0,WeatherDisplay:10.37,2013-09-01 15:13:00,
2013-09-01 10:18:00,66.8,61.1,29.75,East,92,1.1,1.1,82,0.00,OVC,,0.00,139.0,WeatherDisplay:10.37,2013-09-01 15:18:00,
2013-09-01 10:23:00,66.8,61.5,29.75,SW,221,3.0,3.0,83,0.00,OVC,,0.00,135.0,WeatherDisplay:10.37,2013-09-01 15:23:00,
2013-09-01 10:28:00,66.8,61.5,29.75,SW,225,3.5,3.5,83,0.00,OVC,,0.00,234.0,WeatherDisplay:10.37,2013-09-01 15:28:00,
2013-09-01 10:33:00,67.0,61.3,29.75,West,278,4.6,4.6,82,0.00,OVC,,0.00,183.0,WeatherDisplay:10.37,2013-09-01 15:33:00,
2013-09-01 10:38:00,67.3,61.3,29.76,SSW,213,3.5,3.5,81,0.00,OVC,,0.00,148.0,WeatherDisplay:10.37,2013-09-01 15:38:00,
2013-09-01 10:43:00,67.4,61.4,29.75,NNE,17,3.5,3.5,81,0.00,OVC,,0.00,116.0,WeatherDisplay:10.37,2013-09-01 15:43:00,
2013-09-01 10:48:00,67.3,61.6,29.75,SE,130,3.0,3.0,82,0.00,OVC,,0.00,77.0,WeatherDisplay:10.37,2013-09-01 15:48:00,
2013-09-01 10:53:00,67.4,61.4,29.75,North,5,1.1,1.2,81,0.00,OVC,,0.00,155.0,WeatherDisplay:10.37,2013-09-01 15:53:00,
2013-09-01 10:58:00,67.7,61.3,29.75,ESE,117,3.5,3.5,80,0.00,OVC,,0.00,193.0,WeatherDisplay:10.37,2013-09-01 15:58:00,
2013-09-01 11:03:00,68.1,61.7,29.75,WNW,282,2.3,2.3,80,0.00,OVC,,0.00,206.0,WeatherDisplay:10.37,2013-09-01 16:03:00,
2013-09-01 11:08:00,68.4,61.6,29.75,WNW,286,3.5,3.5,79,0.00,OVC,,0.00,213.0,WeatherDisplay:10.37,2013-09-01 16:08:00,
2013-09-01 11:13:00,68.6,62.5,29.75,West,278,0.0,0.0,81,0.00,OVC,,0.00,218.0,WeatherDisplay:10.37,2013-09-01 16:13:00,
2013-09-01 11:18:00,68.7,63.0,29.75,NNE,28,6.0,6.0,82,0.00,OVC,,0.00,221.0,WeatherDisplay:10.37,2013-09-01 16:18:00,
2013-09-01 11:23:00,68.6,61.8,29.75,WNW,300,3.5,3.5,79,0.00,OVC,,0.00,250.0,WeatherDisplay:10.37,2013-09-01 16:23:00,
2013-09-01 11:28:00,68.8,62.7,29.75,WSW,241,4.6,4.6,81,0.00,OVC,,0.00,306.0,WeatherDisplay:10.37,2013-09-01 16:28:00,
2013-09-01 11:33:00,69.2,62.4,29.75,NNE,17,2.3,2.3,79,0.00,OVC,,0.00,812.0,WeatherDisplay:10.37,2013-09-01 16:33:00,
2013-09-01 11:38:00,70.1,62.9,29.75,West,276,3.5,3.5,78,0.00,OVC,,0.00,234.0,WeatherDisplay:10.37,2013-09-01 16:38:00,
2013-09-01 11:43:00,70.6,61.9,29.75,North,5,3.5,3.5,74,0.00,OVC,,0.00,105.0,WeatherDisplay:10.37,2013-09-01 16:43:00,
2013-09-01 11:48:00,70.5,62.2,29.75,NNW,333,3.5,3.5,75,0.00,OVC,,0.00,329.0,WeatherDisplay:10.37,2013-09-01 16:48:00,
2013-09-01 11:53:00,70.8,62.1,29.75,NNE,23,3.5,3.5,74,0.00,OVC,,0.00,914.0,WeatherDisplay:10.37,2013-09-01 16:53:00,
2013-09-01 11:58:00,71.4,62.7,29.76,West,274,8.1,8.1,74,0.00,OVC,,0.00,796.0,WeatherDisplay:10.37,2013-09-01 16:58:00,
2013-09-01 12:03:00,72.1,62.6,29.76,NW,320,4.6,4.6,72,0.00,BKN,,0.00,816.0,WeatherDisplay:10.37,2013-09-01 17:03:00,
2013-09-01 12:08:00,72.4,62.5,29.76,ENE,67,3.5,3.5,71,0.00,BKN,,0.00,884.0,WeatherDisplay:10.37,2013-09-01 17:08:00,
2013-09-01 12:13:00,73.0,65.0,29.76,NW,316,1.1,1.4,76,0.00,BKN,,0.00,817.0,WeatherDisplay:10.37,2013-09-01 17:13:00,
2013-09-01 12:18:00,73.4,63.0,29.76,WSW,242,4.0,4.0,70,0.00,BKN,,0.00,874.0,WeatherDisplay:10.37,2013-09-01 17:18:00,
2013-09-01 12:23:00,73.6,61.5,29.76,West,261,8.1,8.1,66,0.00,BKN,,0.00,847.0,WeatherDisplay:10.37,2013-09-01 17:23:00,
2013-09-01 12:28:00,73.7,62.1,29.76,WNW,295,5.8,5.8,67,0.00,BKN,,0.00,779.0,WeatherDisplay:10.37,2013-09-01 17:28:00,
2013-09-01 12:33:00,73.7,62.9,29.76,SW,229,6.9,6.9,69,0.00,BKN,,0.00,1044.0,WeatherDisplay:10.37,2013-09-01 17:33:00,
2013-09-01 12:38:00,73.7,62.1,29.76,WSW,238,4.6,4.6,67,0.00,BKN,,0.00,874.0,WeatherDisplay:10.37,2013-09-01 17:38:00,
2013-09-01 12:43:00,74.1,62.4,29.76,SW,215,6.0,6.0,67,0.00,BKN,,0.00,1011.0,WeatherDisplay:10.37,2013-09-01 17:43:00,
2013-09-01 12:48:00,74.3,62.6,29.76,WNW,283,4.6,4.6,67,0.00,BKN,,0.00,301.0,WeatherDisplay:10.37,2013-09-01 17:48:00,
2013-09-01 12:53:00,74.0,61.9,29.76,East,98,3.5,3.5,66,0.00,BKN,,0.00,227.0,WeatherDisplay:10.37,2013-09-01 17:53:00,
2013-09-01 12:58:00,73.8,63.0,29.76,SE,141,2.3,2.3,69,0.00,BKN,,0.00,1027.0,WeatherDisplay:10.37,2013-09-01 17:58:00,
2013-09-01 13:03:00,73.9,62.7,29.76,ENE,78,3.0,3.0,68,0.00,OVC,,0.00,777.0,WeatherDisplay:10.37,2013-09-01 18:03:00,
2013-09-01 13:08:00,73.7,62.1,29.76,WNW,298,3.5,3.5,67,0.00,OVC,,0.00,171.0,WeatherDisplay:10.37,2013-09-01 18:08:00,
2013-09-01 13:13:00,72.8,61.6,29.76,North,9,3.5,3.5,68,0.00,OVC,,0.00,134.0,WeatherDisplay:10.37,2013-09-01 18:13:00,
2013-09-01 13:18:00,72.4,62.9,29.76,WSW,255,3.5,3.5,72,0.00,OVC,,0.00,237.0,WeatherDisplay:10.37,2013-09-01 18:18:00,
2013-09-01 13:23:00,73.0,62.2,29.76,NNE,30,3.5,3.5,69,0.00,OVC,,0.00,840.0,WeatherDisplay:10.37,2013-09-01 18:23:00,
2013-09-01 13:28:00,73.7,62.1,29.76,ESE,103,3.5,3.5,67,0.00,OVC,,0.00,953.0,WeatherDisplay:10.37,2013-09-01 18:28:00,
2013-09-01 13:33:00,74.5,62.8,29.76,WNW,290,5.8,5.8,67,0.00,OVC,,0.00,991.0,WeatherDisplay:10.37,2013-09-01 18:33:00,
2013-09-01 13:38:00,74.6,62.5,29.77,NE,40,3.5,3.5,66,0.00,OVC,,0.00,190.0,WeatherDisplay:10.37,2013-09-01 18:38:00,
2013-09-01 13:43:00,74.0,63.2,29.77,SW,214,3.5,3.5,69,0.00,OVC,,0.00,272.0,WeatherDisplay:10.37,2013-09-01 18:43:00,
2013-09-01 13:48:00,74.4,62.7,29.77,NE,40,3.5,3.5,67,0.00,OVC,,0.00,1065.0,WeatherDisplay:10.37,2013-09-01 18:48:00,
2013-09-01 13:54:00,74.6,62.5,29.77,West,277,4.6,4.6,66,0.00,OVC,,0.00,299.0,WeatherDisplay:10.37,2013-09-01 18:54:00,
2013-09-01 13:59:00,74.4,63.1,29.77,NW,326,3.5,3.5,68,0.00,OVC,,0.00,185.0,WeatherDisplay:10.37,2013-09-01 18:59:00,
2013-09-01 14:04:00,74.0,62.8,29.77,SW,236,4.0,4.0,68,0.00,OVC,,0.00,1021.0,WeatherDisplay:10.37,2013-09-01 19:04:00,
2013-09-01 14:09:00,74.0,62.3,29.77,WNW,282,5.0,5.0,67,0.00,OVC,,0.00,872.0,WeatherDisplay:10.37,2013-09-01 19:09:00,
2013-09-01 14:14:00,74.3,63.9,29.77,WNW,287,5.0,5.0,70,0.00,OVC,,0.00,1027.0,WeatherDisplay:10.37,2013-09-01 19:14:00,
2013-09-01 14:19:00,74.1,61.1,29.78,SW,230,3.0,3.0,64,0.00,OVC,,0.00,77.0,WeatherDisplay:10.37,2013-09-01 19:19:00,
2013-09-01 14:24:00,73.5,61.9,29.78,WNW,301,1.1,1.1,67,0.00,OVC,,0.00,54.0,WeatherDisplay:10.37,2013-09-01 19:24:00,
2013-09-01 14:29:00,73.0,61.8,29.78,West,265,1.1,1.1,68,0.00,OVC,,0.00,83.0,WeatherDisplay:10.37,2013-09-01 19:29:00,
2013-09-01 14:34:00,72.7,61.9,29.77,North,360,3.5,3.5,69,0.00,OVC,,0.00,798.0,WeatherDisplay:10.37,2013-09-01 19:34:00,
2013-09-01 14:39:00,73.3,63.3,29.77,NNE,30,2.3,2.3,71,0.00,OVC,,0.00,784.0,WeatherDisplay:10.37,2013-09-01 19:39:00,
2013-09-01 14:44:00,74.3,63.9,29.77,NE,40,3.0,3.0,70,0.00,OVC,,0.00,911.0,WeatherDisplay:10.37,2013-09-01 19:44:00,
2013-09-01 14:49:00,74.6,62.5,29.77,NNE,30,3.5,3.5,66,0.00,OVC,,0.00,127.0,WeatherDisplay:10.37,2013-09-01 19:49:00,
2013-09-01 14:54:00,74.4,62.3,29.77,NE,52,6.9,6.9,66,0.00,OVC,,0.00,775.0,WeatherDisplay:10.37,2013-09-01 19:54:00,
2013-09-01 14:59:00,74.8,63.5,29.77,WSW,256,2.3,2.3,68,0.00,OVC,,0.00,867.0,WeatherDisplay:10.37,2013-09-01 19:59:00,
2013-09-01 15:04:00,75.2,63.1,29.77,NNE,13,9.2,9.2,66,0.00,OVC,,0.00,278.0,WeatherDisplay:10.37,2013-09-01 20:04:00,
2013-09-01 15:09:00,74.8,62.2,29.77,NW,306,4.6,4.6,65,0.00,OVC,,0.00,81.0,WeatherDisplay:10.37,2013-09-01 20:09:00,
2013-09-01 15:14:00,74.1,62.4,29.77,NE,48,1.1,1.1,67,0.00,OVC,,0.00,153.0,WeatherDisplay:10.37,2013-09-01 20:14:00,
2013-09-01 15:19:00,74.2,64.6,29.77,SSW,213,2.0,2.0,72,0.00,OVC,,0.00,896.0,WeatherDisplay:10.37,2013-09-01 20:19:00,
2013-09-01 15:24:00,74.3,62.6,29.77,WNW,296,3.5,3.5,67,0.00,OVC,,0.00,137.0,WeatherDisplay:10.37,2013-09-01 20:24:00,
2013-09-01 15:29:00,74.0,62.8,29.77,SW,226,1.1,1.1,68,0.00,OVC,,0.00,93.0,WeatherDisplay:10.37,2013-09-01 20:29:00,
2013-09-01 15:34:00,73.5,61.9,29.77,West,259,2.3,2.3,67,0.00,OVC,,0.00,77.0,WeatherDisplay:10.37,2013-09-01 20:34:00,
2013-09-01 15:39:00,73.3,63.7,29.77,WSW,257,1.1,1.1,72,0.00,OVC,,0.00,220.0,WeatherDisplay:10.37,2013-09-01 20:39:00,
2013-09-01 15:44:00,73.9,63.1,29.77,WSW,238,3.0,3.0,69,0.00,OVC,,0.00,668.0,WeatherDisplay:10.37,2013-09-01 20:44:00,
2013-09-01 15:49:00,74.8,63.5,29.77,WSW,246,2.3,2.3,68,0.00,OVC,,0.00,654.0,WeatherDisplay:10.37,2013-09-01 20:49:00,
2013-09-01 15:54:00,75.1,63.0,29.77,NNW,348,3.5,3.5,66,0.00,OVC,,0.00,647.0,WeatherDisplay:10.37,2013-09-01 20:54:00,
2013-09-01 15:59:00,75.4,63.2,29.77,South,188,5.8,5.8,66,0.00,OVC,,0.00,668.0,WeatherDisplay:10.37,2013-09-01 20:59:00,
2013-09-01 16:04:00,75.8,63.6,29.77,NW,306,3.5,3.5,66,0.00,OVC,,0.00,615.0,WeatherDisplay:10.37,2013-09-01 21:04:00,
2013-09-01 16:09:00,76.1,63.5,29.77,West,279,3.5,3.5,65,0.00,OVC,,0.00,744.0,WeatherDisplay:10.37,2013-09-01 21:09:00,
2013-09-01 16:14:00,75.8,62.3,29.77,SE,135,2.3,2.3,63,0.00,OVC,,0.00,165.0,WeatherDisplay:10.37,2013-09-01 21:14:00,
2013-09-01 16:19:00,75.1,63.0,29.78,WSW,252,4.6,4.6,66,0.00,OVC,,0.00,132.0,WeatherDisplay:10.37,2013-09-01 21:19:00,
2013-09-01 16:24:00,74.5,62.8,29.78,SE,128,1.1,1.1,67,0.00,OVC,,0.00,171.0,WeatherDisplay:10.37,2013-09-01 21:24:00,
2013-09-01 16:29:00,74.1,63.3,29.78,South,182,1.1,1.1,69,0.00,OVC,,0.00,163.0,WeatherDisplay:10.37,2013-09-01 21:29:00,
2013-09-01 16:34:00,73.5,62.3,29.78,SSE,165,2.3,2.3,68,0.00,OVC,,0.00,91.0,WeatherDisplay:10.37,2013-09-01 21:34:00,
2013-09-01 16:39:00,73.0,62.2,29.78,West,272,3.5,3.5,69,0.00,OVC,,0.00,134.0,WeatherDisplay:10.37,2013-09-01 21:39:00,
2013-09-01 16:44:00,72.7,62.8,29.78,WNW,293,3.5,3.5,71,0.00,OVC,,0.00,183.0,WeatherDisplay:10.37,2013-09-01 21:44:00,
2013-09-01 16:49:00,72.6,62.7,29.79,East,86,6.9,6.9,71,0.00,OVC,,0.00,213.0,WeatherDisplay:10.37,2013-09-01 21:49:00,
2013-09-01 16:54:00,72.6,62.7,29.78,North,360,3.5,3.5,71,0.00,OVC,,0.00,290.0,WeatherDisplay:10.37,2013-09-01 21:54:00,
2013-09-01 16:59:00,72.6,63.1,29.78,WSW,249,4.6,4.6,72,0.00,OVC,,0.00,91.0,WeatherDisplay:10.37,2013-09-01 21:59:00,
2013-09-01 17:04:00,72.4,62.5,29.79,NE,34,4.6,4.6,71,0.00,OVC,,0.00,76.0,WeatherDisplay:10.37,2013-09-01 22:04:00,
2013-09-01 17:09:00,72.2,62.7,29.79,NW,315,2.3,2.3,72,0.00,OVC,,0.00,62.0,WeatherDisplay:10.37,2013-09-01 22:09:00,
2013-09-01 17:14:00,71.9,62.4,29.79,WNW,284,2.3,3.0,72,0.00,OVC,,0.00,33.0,WeatherDisplay:10.37,2013-09-01 22:14:00,
2013-09-01 17:19:00,71.6,62.9,29.79,NNE,12,3.5,3.5,74,0.00,OVC,,0.00,230.0,WeatherDisplay:10.37,2013-09-01 22:19:00,
2013-09-01 17:24:00,71.6,62.9,29.80,WNW,287,3.5,3.5,74,0.00,OVC,,0.00,149.0,WeatherDisplay:10.37,2013-09-01 22:24:00,
2013-09-01 17:29:00,71.4,62.7,29.79,ENE,71,3.5,3.5,74,0.00,OVC,,0.00,135.0,WeatherDisplay:10.37,2013-09-01 22:29:00,
2013-09-01 17:34:00,71.2,62.1,29.80,West,272,4.6,4.6,73,0.00,OVC,,0.00,146.0,WeatherDisplay:10.37,2013-09-01 22:34:00,
2013-09-01 17:39:00,70.9,62.6,29.80,NNE,22,3.5,3.5,75,0.00,OVC,,0.00,77.0,WeatherDisplay:10.37,2013-09-01 22:39:00,
2013-09-01 17:44:00,70.7,62.4,29.80,North,5,3.5,3.5,75,0.00,OVC,,0.00,84.0,WeatherDisplay:10.37,2013-09-01 22:44:00,
2013-09-01 17:49:00,70.5,61.8,29.80,NE,55,8.1,8.1,74,0.00,OVC,,0.00,40.0,WeatherDisplay:10.37,2013-09-01 22:49:00,
2013-09-01 17:54:00,70.2,62.3,29.81,NNE,16,1.1,1.1,76,0.00,OVC,,0.00,37.0,WeatherDisplay:10.37,2013-09-01 22:54:00,
2013-09-01 17:59:00,69.9,62.0,29.81,ENE,67,1.1,1.1,76,0.00,OVC,,0.00,32.0,WeatherDisplay:10.37,2013-09-01 22:59:00,
2013-09-01 18:04:00,69.5,61.6,29.81,SSW,205,3.5,3.5,76,0.00,OVC,,0.00,42.0,WeatherDisplay:10.37,2013-09-01 23:04:00,
2013-09-01 18:09:00,69.3,61.8,29.82,NNE,29,1.1,1.1,77,0.00,OVC,,0.00,65.0,WeatherDisplay:10.37,2013-09-01 23:09:00,
2013-09-01 18:14:00,69.2,61.7,29.82,SE,137,4.0,4.0,77,0.00,OVC,,0.00,35.0,WeatherDisplay:10.37,2013-09-01 23:14:00,
2013-09-01 18:19:00,68.9,61.4,29.82,WSW,241,1.1,1.1,77,0.00,OVC,,0.00,26.0,WeatherDisplay:10.37,2013-09-01 23:19:00,
2013-09-01 18:24:00,68.6,61.1,29.82,WNW,292,2.3,2.3,77,0.00,OVC,,0.00,30.0,WeatherDisplay:10.37,2013-09-01 23:24:00,
2013-09-01 18:29:00,68.4,61.3,29.82,NNE,17,2.3,2.3,78,0.00,OVC,,0.00,40.0,WeatherDisplay:10.37,2013-09-01 23:29:00,
2013-09-01 18:34:00,68.1,60.6,29.82,ENE,72,3.5,3.5,77,0.00,OVC,,0.00,33.0,WeatherDisplay:10.37,2013-09-01 23:34:00,
2013-09-01 18:39:00,67.9,60.4,29.82,NE,47,4.0,4.0,77,0.00,OVC,,0.00,37.0,WeatherDisplay:10.37,2013-09-01 23:39:00,
2013-09-01 18:44:00,67.8,60.7,29.82,NE,34,5.8,5.8,78,0.00,OVC,,0.00,35.0,WeatherDisplay:10.37,2013-09-01 23:44:00,
2013-09-01 18:49:00,67.7,60.6,29.83,West,278,2.0,2.0,78,0.00,OVC,,0.00,19.0,WeatherDisplay:10.37,2013-09-01 23:49:00,
2013-09-01 18:54:00,67.5,60.4,29.83,West,271,1.1,1.1,78,0.00,OVC,,0.00,18.0,WeatherDisplay:10.37,2013-09-01 23:54:00,
2013-09-01 18:59:00,67.3,60.2,29.83,NW,313,2.0,2.0,78,0.00,OVC,,0.00,26.0,WeatherDisplay:10.37,2013-09-01 23:59:00,
2013-09-01 19:04:00,67.2,60.1,29.83,WNW,290,2.3,2.3,78,0.00,OVC,,0.00,26.0,WeatherDisplay:10.37,2013-09-02 00:04:00,
2013-09-01 19:09:00,67.0,60.3,29.83,WSW,241,0.0,0.1,79,0.00,OVC,,0.00,21.0,WeatherDisplay:10.37,2013-09-02 00:09:00,
2013-09-01 19:15:00,67.0,60.3,29.83,North,355,3.5,3.5,79,0.00,OVC,,0.00,11.0,WeatherDisplay:10.37,2013-09-02 00:15:00,
2013-09-01 19:20:00,66.7,60.0,29.84,NW,313,3.5,3.5,79,0.00,OVC,,0.00,7.0,WeatherDisplay:10.37,2013-09-02 00:20:00,
2013-09-01 19:25:00,66.3,59.2,29.84,North,9,2.3,2.3,78,0.00,OVC,,0.00,7.0,WeatherDisplay:10.37,2013-09-02 00:25:00,
2013-09-01 19:30:00,65.9,59.2,29.84,NW,322,2.3,2.3,79,0.00,OVC,,0.00,5.0,WeatherDisplay:10.37,2013-09-02 00:30:00,
2013-09-01 19:35:00,65.5,58.8,29.84,West,261,3.5,3.5,79,0.00,OVC,,0.00,0.0,WeatherDisplay:10.37,2013-09-02 00:35:00,
2013-09-01 19:40:00,65.2,58.9,29.85,WNW,287,9.2,9.2,80,0.00,OVC,,0.00,0.0,WeatherDisplay:10.37,2013-09-02 00:40:00,
2013-09-01 19:45:00,65.1,58.8,29.85,SW,234,3.5,3.5,80,0.00,OVC,,0.00,0.0,WeatherDisplay:10.37,2013-09-02 00:45:00,
2013-09-01 19:50:00,64.9,58.9,29.85,SSW,213,1.1,1.1,81,0.00,OVC,,0.00,0.0,WeatherDisplay:10.37,2013-09-02 00:50:00,
2013-09-01 19:55:00,64.8,58.8,29.86,NNE,25,1.1,1.1,81,0.00,OVC,,0.00,0.0,WeatherDisplay:10.37,2013-09-02 00:55:00,
2013-09-01 20:00:00,64.7,58.7,29.86,NW,315,1.1,1.1,81,0.00,OVC,,0.00,0.0,WeatherDisplay:10.37,2013-09-02 01:00:00,
2013-09-01 20:05:00,64.5,58.5,29.86,East,101,1.1,1.1,81,0.00,OVC,,0.00,0.0,WeatherDisplay:10.37,2013-09-02 01:05:00,
2013-09-01 20:10:00,64.1,58.5,29.86,West,261,8.1,8.1,82,0.00,OVC,,0.00,0.0,WeatherDisplay:10.37,2013-09-02 01:10:00,
2013-09-01 20:15:00,63.8,58.2,29.87,NE,45,5.8,5.8,82,0.00,OVC,,0.00,0.0,WeatherDisplay:10.37,2013-09-02 01:15:00,
2013-09-01 20:20:00,63.5,57.9,29.87,North,360,3.0,3.0,82,0.00,OVC,,0.00,0.0,WeatherDisplay:10.37,2013-09-02 01:20:00,
2013-09-01 20:25:00,63.3,57.7,29.87,ESE,113,3.5,3.5,82,0.00,OVC,,0.00,0.0,WeatherDisplay:10.37,2013-09-02 01:25:00,
2013-09-01 20:30:00,63.1,57.9,29.87,WNW,302,2.3,2.3,83,0.00,OVC,,0.00,0.0,WeatherDisplay:10.37,2013-09-02 01:30:00,
2013-09-01 20:35:00,63.0,58.1,29.88,NNE,30,1.1,1.2,84,0.00,OVC,,0.00,0.0,WeatherDisplay:10.37,2013-09-02 01:35:00,
2013-09-01 20:40:00,62.8,57.6,29.88,West,275,3.5,3.5,83,0.00,OVC,,0.00,0.0,WeatherDisplay:10.37,2013-09-02 01:40:00,
2013-09-01 20:45:00,62.7,57.5,29.88,SSE,147,1.1,1.1,83,0.00,OVC,,0.00,0.0,WeatherDisplay:10.37,2013-09-02 01:45:00,
2013-09-01 20:50:00,62.6,57.4,29.88,WSW,252,3.5,3.5,83,0.00,OVC,,0.00,0.0,WeatherDisplay:10.37,2013-09-02 01:50:00,
2013-09-01 20:55:00,62.6,57.0,29.88,NE,51,0.0,0.0,82,0.00,OVC,,0.00,0.0,WeatherDisplay:10.37,2013-09-02 01:55:00,
2013-09-01 21:00:00,62.5,56.9,29.89,SE,144,2.3,0.0,82,0.00,OVC,,0.00,0.0,WeatherDisplay:10.37,2013-09-02 02:00:00,
2013-09-01 21:05:00,62.5,56.9,29.89,WSW,242,4.6,4.6,82,0.00,OVC,,0.00,0.0,WeatherDisplay:10.37,2013-09-02 02:05:00,
2013-09-01 21:10:00,62.4,56.5,29.89,NNE,22,2.3,2.3,81,0.00,OVC,,0.00,0.0,WeatherDisplay:10.37,2013-09-02 02:10:00,
2013-09-01 21:15:00,62.5,56.6,29.89,WSW,252,1.1,1.1,81,0.00,OVC,,0.00,0.0,WeatherDisplay:10.37,2013-09-02 02:15:00,
2013-09-01 21:20:00,62.4,56.1,29.89,SE,138,1.1,1.1,80,0.00,OVC,,0.00,0.0,WeatherDisplay:10.37,2013-09-02 02:20:00,
2013-09-01 21:25:00,62.3,56.0,29.89,NW,319,3.5,3.5,80,0.00,OVC,,0.00,0.0,WeatherDisplay:10.37,2013-09-02 02:25:00,
2013-09-01 21:30:00,62.2,56.3,29.89,NNE,30,3.5,3.5,81,0.00,OVC,,0.00,0.0,WeatherDisplay:10.37,2013-09-02 02:30:00,
2013-09-01 21:35:00,61.9,56.0,29.89,NNE,20,3.5,3.5,81,0.00,OVC,,0.00,0.0,WeatherDisplay:10.37,2013-09-02 02:35:00,
2013-09-01 21:40:00,61.7,56.1,29.90,North,350,1.1,1.1,82,0.00,OVC,,0.00,0.0,WeatherDisplay:10.37,2013-09-02 02:40:00,
2013-09-01 21:45:00,61.5,56.3,29.90,West,271,1.1,1.1,83,0.00,OVC,,0.00,0.0,WeatherDisplay:10.37,2013-09-02 02:45:00,
2013-09-01 21:50:00,61.4,56.2,29.90,SW,233,2.0,2.0,83,0.00,OVC,,0.00,0.0,WeatherDisplay:10.37,2013-09-02 02:50:00,
2013-09-01 21:55:00,61.2,56.0,29.90,SE,134,2.3,0.0,83,0.00,OVC,,0.00,0.0,WeatherDisplay:10.37,2013-09-02 02:55:00,
2013-09-01 22:00:00,61.0,55.8,29.90,NNW,340,1.1,1.1,83,0.00,OVC,,0.00,0.0,WeatherDisplay:10.37,2013-09-02 03:00:00,
2013-09-01 22:05:00,60.9,55.7,29.90,NE,49,4.6,4.6,83,0.00,OVC,,0.00,0.0,WeatherDisplay:10.37,2013-09-02 03:05:00,
2013-09-01 22:10:00,60.7,55.8,29.91,SW,236,2.3,2.3,84,0.00,OVC,,0.00,0.0,WeatherDisplay:10.37,2013-09-02 03:10:00,
2013-09-01 22:15:00,60.6,55.7,29.91,North,11,1.0,1.0,84,0.00,OVC,,0.00,0.0,WeatherDisplay:10.37,2013-09-02 03:15:00,
2013-09-01 22:20:00,60.4,55.5,29.91,WNW,295,2.3,2.3,84,0.00,OVC,,0.00,0.0,WeatherDisplay:10.37,2013-09-02 03:20:00,
2013-09-01 22:25:00,60.3,55.4,29.91,SW,233,2.3,0.0,84,0.00,OVC,,0.00,0.0,WeatherDisplay:10.37,2013-09-02 03:25:00,
2013-09-01 22:30:00,60.2,55.3,29.91,SSW,199,2.0,2.0,84,0.00,OVC,,0.00,0.0,WeatherDisplay:10.37,2013-09-02 03:30:00,
2013-09-01 22:35:00,60.2,55.3,29.91,South,171,1.1,0.0,84,0.00,OVC,,0.00,0.0,WeatherDisplay:10.37,2013-09-02 03:35:00,
2013-09-01 22:40:00,60.2,55.3,29.91,NE,38,2.3,2.3,84,0.00,OVC,,0.00,0.0,WeatherDisplay:10.37,2013-09-02 03:40:00,
2013-09-01 22:45:00,60.1,55.2,29.91,NE,38,1.1,0.0,84,0.00,OVC,,0.00,0.0,WeatherDisplay:10.37,2013-09-02 03:45:00,
2013-09-01 22:50:00,60.1,55.2,29.91,NNW,342,4.6,4.6,84,0.00,OVC,,0.00,0.0,WeatherDisplay:10.37,2013-09-02 03:50:00,
2013-09-01 22:55:00,60.0,55.5,29.91,NW,325,2.3,2.3,85,0.00,OVC,,0.00,0.0,WeatherDisplay:10.37,2013-09-02 03:55:00,
2013-09-01 23:00:00,60.0,55.5,29.92,SSW,205,3.5,3.5,85,0.00,OVC,,0.00,0.0,WeatherDisplay:10.37,2013-09-02 04:00:00,
2013-09-01 23:01:00,60.0,55.5,29.92,SSW,205,2.3,2.3,85,0.00,OVC,,0.00,0.0,WeatherDisplay:10.37,2013-09-02 04:01:00,
2013-09-01 23:02:00,60.0,55.5,29.92,SSW,213,1.1,1.1,85,0.00,OVC,,0.00,0.0,WeatherDisplay:10.37,2013-09-02 04:02:00,
2013-09-01 23:07:00,59.9,55.4,29.92,WNW,298,2.3,2.3,85,0.00,OVC,,0.00,0.0,WeatherDisplay:10.37,2013-09-02 04:07:00,
2013-09-01 23:12:00,59.8,55.0,29.92,West,277,3.5,3.5,84,0.00,OVC,,0.00,0.0,WeatherDisplay:10.37,2013-09-02 04:12:00,
2013-09-01 23:17:00,59.7,54.9,29.92,West,279,1.1,1.1,84,0.00,OVC,,0.00,0.0,WeatherDisplay:10.37,2013-09-02 04:17:00,
2013-09-01 23:22:00,59.7,54.9,29.92,NNW,336,1.1,1.1,84,0.00,OVC,,0.00,0.0,WeatherDisplay:10.37,2013-09-02 04:22:00,
2013-09-01 23:27:00,59.6,54.8,29.92,NW,321,1.1,0.0,84,0.00,OVC,,0.00,0.0,WeatherDisplay:10.37,2013-09-02 04:27:00,
2013-09-01 23:32:00,59.5,54.7,29.92,WSW,244,0.0,0.0,84,0.00,-RA,,0.00,0.0,WeatherDisplay:10.37,2013-09-02 04:32:00,
2013-09-01 23:37:00,59.5,55.0,29.92,NW,313,1.1,1.1,85,0.00,-RA,,0.00,0.0,WeatherDisplay:10.37,2013-09-02 04:37:00,
2013-09-01 23:42:00,59.4,54.9,29.92,NNW,339,2.3,2.3,85,0.00,-RA,,0.00,0.0,WeatherDisplay:10.37,2013-09-02 04:42:00,
2013-09-01 23:47:00,59.4,54.9,29.92,WSW,242,1.1,1.1,85,0.00,-RA,,0.00,0.0,WeatherDisplay:10.37,2013-09-02 04:47:00,
2013-09-01 23:52:00,59.3,55.1,29.92,NW,321,3.5,3.5,86,0.00,-RA,,0.00,0.0,WeatherDisplay:10.37,2013-09-02 04:52:00,
2013-09-01 23:57:00,59.2,55.0,29.92,NNE,26,1.1,1.1,86,0.00,-RA,,0.00,0.0,WeatherDisplay:10.37,2013-09-02 04:57:00,